sensor_id;sensor_type;location;lat;lon;timestamp;P1;durP1;ratioP1;P2;durP2;ratioP2
52586;SDS011;38480;52.724;6.436;2023-02-22T00:02:19;35.63;;;17.23;;
52586;SDS011;38480;52.724;6.436;2023-02-22T00:04:53;47.77;;;19.53;;
52586;SDS011;38480;52.724;6.436;2023-02-22T00:07:19;45.80;;;18.70;;
52586;SDS011;38480;52.724;6.436;2023-02-22T00:09:45;40.80;;;19.03;;
52586;SDS011;38480;52.724;6.436;2023-02-22T00:12:11;42.20;;;18.53;;
52586;SDS011;38480;52.724;6.436;2023-02-22T00:14:38;37.00;;;17.60;;
52586;SDS011;38480;52.724;6.436;2023-02-22T00:17:04;35.10;;;17.37;;
52586;SDS011;38480;52.724;6.436;2023-02-22T00:19:31;37.10;;;16.40;;
52586;SDS011;38480;52.724;6.436;2023-02-22T00:21:58;33.13;;;15.37;;
52586;SDS011;38480;52.724;6.436;2023-02-22T00:24:24;32.13;;;15.70;;
52586;SDS011;38480;52.724;6.436;2023-02-22T00:26:53;34.60;;;15.30;;
52586;SDS011;38480;52.724;6.436;2023-02-22T00:29:22;34.97;;;16.13;;
52586;SDS011;38480;52.724;6.436;2023-02-22T00:31:49;30.60;;;15.67;;
52586;SDS011;38480;52.724;6.436;2023-02-22T00:34:15;38.93;;;18.07;;
52586;SDS011;38480;52.724;6.436;2023-02-22T00:36:45;33.03;;;16.77;;
52586;SDS011;38480;52.724;6.436;2023-02-22T00:39:11;39.67;;;17.57;;
52586;SDS011;38480;52.724;6.436;2023-02-22T00:41:37;36.50;;;17.30;;
52586;SDS011;38480;52.724;6.436;2023-02-22T00:44:03;35.37;;;16.93;;
52586;SDS011;38480;52.724;6.436;2023-02-22T00:46:29;44.47;;;18.30;;
52586;SDS011;38480;52.724;6.436;2023-02-22T00:48:55;37.27;;;17.20;;
52586;SDS011;38480;52.724;6.436;2023-02-22T00:51:24;36.77;;;17.43;;
52586;SDS011;38480;52.724;6.436;2023-02-22T00:53:50;32.90;;;16.33;;
52586;SDS011;38480;52.724;6.436;2023-02-22T00:56:16;33.00;;;16.07;;
52586;SDS011;38480;52.724;6.436;2023-02-22T00:58:42;33.77;;;16.53;;
52586;SDS011;38480;52.724;6.436;2023-02-22T01:01:08;32.10;;;16.80;;
52586;SDS011;38480;52.724;6.436;2023-02-22T01:03:34;34.87;;;16.00;;
52586;SDS011;38480;52.724;6.436;2023-02-22T01:06:05;31.90;;;14.47;;
52586;SDS011;38480;52.724;6.436;2023-02-22T01:08:31;31.70;;;15.97;;
52586;SDS011;38480;52.724;6.436;2023-02-22T01:10:57;35.37;;;16.53;;
52586;SDS011;38480;52.724;6.436;2023-02-22T01:13:24;29.47;;;15.20;;
52586;SDS011;38480;52.724;6.436;2023-02-22T01:15:50;32.87;;;15.83;;
52586;SDS011;38480;52.724;6.436;2023-02-22T01:18:16;31.00;;;15.53;;
52586;SDS011;38480;52.724;6.436;2023-02-22T01:20:42;31.60;;;15.20;;
52586;SDS011;38480;52.724;6.436;2023-02-22T01:23:12;30.93;;;15.87;;
52586;SDS011;38480;52.724;6.436;2023-02-22T01:25:38;36.43;;;16.97;;
52586;SDS011;38480;52.724;6.436;2023-02-22T01:28:05;33.33;;;15.60;;
52586;SDS011;38480;52.724;6.436;2023-02-22T01:30:34;35.90;;;17.10;;
52586;SDS011;38480;52.724;6.436;2023-02-22T01:33:01;40.17;;;17.83;;
52586;SDS011;38480;52.724;6.436;2023-02-22T01:35:28;36.07;;;17.70;;
52586;SDS011;38480;52.724;6.436;2023-02-22T01:37:55;36.47;;;18.00;;
52586;SDS011;38480;52.724;6.436;2023-02-22T01:40:23;35.33;;;18.07;;
52586;SDS011;38480;52.724;6.436;2023-02-22T01:42:50;40.37;;;18.40;;
52586;SDS011;38480;52.724;6.436;2023-02-22T01:47:57;41.13;;;19.00;;
52586;SDS011;38480;52.724;6.436;2023-02-22T01:50:24;39.47;;;18.73;;
52586;SDS011;38480;52.724;6.436;2023-02-22T01:52:51;35.90;;;18.63;;
52586;SDS011;38480;52.724;6.436;2023-02-22T01:55:17;38.57;;;18.57;;
52586;SDS011;38480;52.724;6.436;2023-02-22T01:57:43;39.73;;;18.93;;
52586;SDS011;38480;52.724;6.436;2023-02-22T02:00:15;37.83;;;18.77;;
52586;SDS011;38480;52.724;6.436;2023-02-22T02:02:43;45.60;;;19.93;;
52586;SDS011;38480;52.724;6.436;2023-02-22T02:05:10;47.13;;;20.50;;
52586;SDS011;38480;52.724;6.436;2023-02-22T02:07:37;43.53;;;21.77;;
52586;SDS011;38480;52.724;6.436;2023-02-22T02:10:04;41.03;;;19.73;;
52586;SDS011;38480;52.724;6.436;2023-02-22T02:12:32;46.77;;;20.20;;
52586;SDS011;38480;52.724;6.436;2023-02-22T02:17:45;50.43;;;22.17;;
52586;SDS011;38480;52.724;6.436;2023-02-22T02:20:18;47.07;;;21.03;;
52586;SDS011;38480;52.724;6.436;2023-02-22T02:30:55;54.33;;;22.23;;
52586;SDS011;38480;52.724;6.436;2023-02-22T02:36:03;50.70;;;22.13;;
52586;SDS011;38480;52.724;6.436;2023-02-22T02:38:40;56.43;;;23.47;;
52586;SDS011;38480;52.724;6.436;2023-02-22T02:41:19;50.57;;;22.40;;
52586;SDS011;38480;52.724;6.436;2023-02-22T02:48:52;61.07;;;24.10;;
52586;SDS011;38480;52.724;6.436;2023-02-22T02:51:21;49.07;;;22.87;;
52586;SDS011;38480;52.724;6.436;2023-02-22T02:53:47;57.93;;;25.17;;
52586;SDS011;38480;52.724;6.436;2023-02-22T02:56:15;53.80;;;24.83;;
52586;SDS011;38480;52.724;6.436;2023-02-22T02:58:48;60.17;;;24.80;;
52586;SDS011;38480;52.724;6.436;2023-02-22T03:04:03;57.93;;;24.73;;
52586;SDS011;38480;52.724;6.436;2023-02-22T03:06:44;61.10;;;25.83;;
52586;SDS011;38480;52.724;6.436;2023-02-22T03:09:17;61.07;;;26.23;;
52586;SDS011;38480;52.724;6.436;2023-02-22T03:14:36;70.37;;;28.07;;
52586;SDS011;38480;52.724;6.436;2023-02-22T03:17:07;62.43;;;27.73;;
52586;SDS011;38480;52.724;6.436;2023-02-22T03:19:37;71.37;;;30.77;;
52586;SDS011;38480;52.724;6.436;2023-02-22T03:22:12;73.50;;;31.43;;
52586;SDS011;38480;52.724;6.436;2023-02-22T03:24:47;75.60;;;32.53;;
52586;SDS011;38480;52.724;6.436;2023-02-22T03:30:09;70.13;;;32.73;;
52586;SDS011;38480;52.724;6.436;2023-02-22T03:32:38;78.13;;;36.03;;
52586;SDS011;38480;52.724;6.436;2023-02-22T03:35:09;77.37;;;37.30;;
52586;SDS011;38480;52.724;6.436;2023-02-22T03:37:38;73.40;;;35.70;;
52586;SDS011;38480;52.724;6.436;2023-02-22T03:40:06;76.63;;;36.00;;
52586;SDS011;38480;52.724;6.436;2023-02-22T03:42:40;77.03;;;36.27;;
52586;SDS011;38480;52.724;6.436;2023-02-22T03:45:07;76.40;;;38.10;;
52586;SDS011;38480;52.724;6.436;2023-02-22T03:47:41;79.10;;;37.00;;
52586;SDS011;38480;52.724;6.436;2023-02-22T03:50:18;88.37;;;40.10;;
52586;SDS011;38480;52.724;6.436;2023-02-22T03:52:45;83.73;;;39.27;;
52586;SDS011;38480;52.724;6.436;2023-02-22T03:55:12;87.50;;;38.77;;
52586;SDS011;38480;52.724;6.436;2023-02-22T03:57:42;82.63;;;37.43;;
52586;SDS011;38480;52.724;6.436;2023-02-22T04:00:11;84.27;;;39.27;;
52586;SDS011;38480;52.724;6.436;2023-02-22T04:02:39;82.53;;;39.30;;
52586;SDS011;38480;52.724;6.436;2023-02-22T04:05:05;85.73;;;40.67;;
52586;SDS011;38480;52.724;6.436;2023-02-22T04:07:31;94.17;;;42.57;;
52586;SDS011;38480;52.724;6.436;2023-02-22T04:09:57;89.57;;;42.57;;
52586;SDS011;38480;52.724;6.436;2023-02-22T04:12:26;94.07;;;43.63;;
52586;SDS011;38480;52.724;6.436;2023-02-22T04:14:52;84.13;;;41.20;;
52586;SDS011;38480;52.724;6.436;2023-02-22T04:17:18;91.40;;;44.07;;
52586;SDS011;38480;52.724;6.436;2023-02-22T04:19:44;92.30;;;42.47;;
52586;SDS011;38480;52.724;6.436;2023-02-22T04:22:10;94.03;;;43.60;;
52586;SDS011;38480;52.724;6.436;2023-02-22T04:24:36;91.93;;;42.83;;
52586;SDS011;38480;52.724;6.436;2023-02-22T04:27:02;100.27;;;45.03;;
52586;SDS011;38480;52.724;6.436;2023-02-22T04:29:28;97.07;;;45.33;;
52586;SDS011;38480;52.724;6.436;2023-02-22T04:31:54;105.40;;;47.87;;
52586;SDS011;38480;52.724;6.436;2023-02-22T04:34:20;107.87;;;49.10;;
52586;SDS011;38480;52.724;6.436;2023-02-22T04:36:46;119.60;;;47.87;;
52586;SDS011;38480;52.724;6.436;2023-02-22T04:39:12;103.03;;;49.37;;
52586;SDS011;38480;52.724;6.436;2023-02-22T04:41:39;102.53;;;49.00;;
52586;SDS011;38480;52.724;6.436;2023-02-22T04:44:05;110.27;;;51.20;;
52586;SDS011;38480;52.724;6.436;2023-02-22T04:46:31;110.07;;;50.13;;
52586;SDS011;38480;52.724;6.436;2023-02-22T04:48:57;111.50;;;50.10;;
52586;SDS011;38480;52.724;6.436;2023-02-22T04:51:24;103.97;;;51.43;;
52586;SDS011;38480;52.724;6.436;2023-02-22T04:53:50;115.70;;;54.63;;
52586;SDS011;38480;52.724;6.436;2023-02-22T04:56:17;106.47;;;52.03;;
52586;SDS011;38480;52.724;6.436;2023-02-22T04:58:43;117.50;;;54.43;;
52586;SDS011;38480;52.724;6.436;2023-02-22T05:01:09;126.70;;;54.97;;
52586;SDS011;38480;52.724;6.436;2023-02-22T05:03:38;119.67;;;53.53;;
52586;SDS011;38480;52.724;6.436;2023-02-22T05:06:04;118.43;;;55.87;;
52586;SDS011;38480;52.724;6.436;2023-02-22T05:08:30;128.60;;;56.87;;
52586;SDS011;38480;52.724;6.436;2023-02-22T05:10:57;130.07;;;57.23;;
52586;SDS011;38480;52.724;6.436;2023-02-22T05:13:23;135.43;;;60.73;;
52586;SDS011;38480;52.724;6.436;2023-02-22T05:15:49;131.93;;;58.03;;
52586;SDS011;38480;52.724;6.436;2023-02-22T05:18:15;122.47;;;55.57;;
52586;SDS011;38480;52.724;6.436;2023-02-22T05:20:41;131.53;;;59.83;;
52586;SDS011;38480;52.724;6.436;2023-02-22T05:23:07;126.10;;;56.20;;
52586;SDS011;38480;52.724;6.436;2023-02-22T05:25:33;132.37;;;58.17;;
52586;SDS011;38480;52.724;6.436;2023-02-22T05:28:00;145.47;;;60.77;;
52586;SDS011;38480;52.724;6.436;2023-02-22T05:30:31;140.13;;;60.03;;
52586;SDS011;38480;52.724;6.436;2023-02-22T05:32:58;139.80;;;59.67;;
52586;SDS011;38480;52.724;6.436;2023-02-22T05:35:24;136.70;;;58.67;;
52586;SDS011;38480;52.724;6.436;2023-02-22T05:37:50;141.27;;;60.47;;
52586;SDS011;38480;52.724;6.436;2023-02-22T05:40:17;131.60;;;58.87;;
52586;SDS011;38480;52.724;6.436;2023-02-22T05:42:44;131.87;;;58.83;;
52586;SDS011;38480;52.724;6.436;2023-02-22T05:45:11;136.03;;;60.77;;
52586;SDS011;38480;52.724;6.436;2023-02-22T05:47:37;140.00;;;58.97;;
52586;SDS011;38480;52.724;6.436;2023-02-22T05:50:04;138.00;;;58.63;;
52586;SDS011;38480;52.724;6.436;2023-02-22T05:52:30;134.83;;;60.50;;
52586;SDS011;38480;52.724;6.436;2023-02-22T05:54:56;143.20;;;62.20;;
52586;SDS011;38480;52.724;6.436;2023-02-22T05:57:22;135.93;;;59.00;;
52586;SDS011;38480;52.724;6.436;2023-02-22T05:59:48;139.03;;;59.17;;
52586;SDS011;38480;52.724;6.436;2023-02-22T06:02:14;134.97;;;57.10;;
52586;SDS011;38480;52.724;6.436;2023-02-22T06:04:44;145.67;;;62.13;;
52586;SDS011;38480;52.724;6.436;2023-02-22T06:07:10;138.23;;;58.57;;
52586;SDS011;38480;52.724;6.436;2023-02-22T06:09:36;147.57;;;59.77;;
52586;SDS011;38480;52.724;6.436;2023-02-22T06:12:02;139.83;;;58.60;;
52586;SDS011;38480;52.724;6.436;2023-02-22T06:14:28;137.37;;;60.53;;
52586;SDS011;38480;52.724;6.436;2023-02-22T06:16:54;144.87;;;59.17;;
52586;SDS011;38480;52.724;6.436;2023-02-22T06:19:21;145.87;;;59.33;;
52586;SDS011;38480;52.724;6.436;2023-02-22T06:21:50;147.43;;;58.37;;
52586;SDS011;38480;52.724;6.436;2023-02-22T06:24:17;152.37;;;61.03;;
52586;SDS011;38480;52.724;6.436;2023-02-22T06:26:43;155.83;;;60.90;;
52586;SDS011;38480;52.724;6.436;2023-02-22T06:29:09;154.70;;;61.03;;
52586;SDS011;38480;52.724;6.436;2023-02-22T06:31:35;141.93;;;58.07;;
52586;SDS011;38480;52.724;6.436;2023-02-22T06:34:01;146.90;;;58.90;;
52586;SDS011;38480;52.724;6.436;2023-02-22T06:36:27;157.17;;;63.40;;
52586;SDS011;38480;52.724;6.436;2023-02-22T06:38:56;157.60;;;63.67;;
52586;SDS011;38480;52.724;6.436;2023-02-22T06:41:22;160.03;;;61.80;;
52586;SDS011;38480;52.724;6.436;2023-02-22T06:43:48;154.27;;;61.43;;
52586;SDS011;38480;52.724;6.436;2023-02-22T06:46:14;154.97;;;61.27;;
52586;SDS011;38480;52.724;6.436;2023-02-22T06:48:40;151.60;;;60.87;;
52586;SDS011;38480;52.724;6.436;2023-02-22T06:51:07;154.20;;;59.93;;
52586;SDS011;38480;52.724;6.436;2023-02-22T06:53:33;153.67;;;61.50;;
52586;SDS011;38480;52.724;6.436;2023-02-22T06:55:59;167.50;;;62.37;;
52586;SDS011;38480;52.724;6.436;2023-02-22T06:58:26;150.63;;;59.93;;
52586;SDS011;38480;52.724;6.436;2023-02-22T07:00:52;157.67;;;62.27;;
52586;SDS011;38480;52.724;6.436;2023-02-22T07:03:18;145.23;;;58.53;;
52586;SDS011;38480;52.724;6.436;2023-02-22T07:05:44;146.63;;;59.57;;
52586;SDS011;38480;52.724;6.436;2023-02-22T07:08:10;143.67;;;59.27;;
52586;SDS011;38480;52.724;6.436;2023-02-22T07:10:37;142.70;;;54.87;;
52586;SDS011;38480;52.724;6.436;2023-02-22T07:13:04;142.13;;;57.90;;
52586;SDS011;38480;52.724;6.436;2023-02-22T07:15:30;149.50;;;59.77;;
52586;SDS011;38480;52.724;6.436;2023-02-22T07:17:57;138.23;;;55.20;;
52586;SDS011;38480;52.724;6.436;2023-02-22T07:20:24;146.40;;;55.70;;
52586;SDS011;38480;52.724;6.436;2023-02-22T07:22:50;143.07;;;56.70;;
52586;SDS011;38480;52.724;6.436;2023-02-22T07:25:16;134.00;;;56.13;;
52586;SDS011;38480;52.724;6.436;2023-02-22T07:27:43;134.60;;;55.33;;
52586;SDS011;38480;52.724;6.436;2023-02-22T07:30:29;138.83;;;55.03;;
52586;SDS011;38480;52.724;6.436;2023-02-22T07:32:56;134.27;;;55.27;;
52586;SDS011;38480;52.724;6.436;2023-02-22T07:35:24;134.87;;;53.93;;
52586;SDS011;38480;52.724;6.436;2023-02-22T07:37:51;129.73;;;52.27;;
52586;SDS011;38480;52.724;6.436;2023-02-22T07:40:17;126.97;;;52.73;;
52586;SDS011;38480;52.724;6.436;2023-02-22T07:42:50;131.77;;;54.80;;
52586;SDS011;38480;52.724;6.436;2023-02-22T07:45:16;131.82;;;54.30;;
52586;SDS011;38480;52.724;6.436;2023-02-22T07:47:42;129.40;;;51.47;;
52586;SDS011;38480;52.724;6.436;2023-02-22T07:50:08;130.37;;;54.17;;
52586;SDS011;38480;52.724;6.436;2023-02-22T07:52:34;126.87;;;51.47;;
52586;SDS011;38480;52.724;6.436;2023-02-22T07:55:01;125.30;;;50.93;;
52586;SDS011;38480;52.724;6.436;2023-02-22T07:57:27;124.87;;;49.93;;
52586;SDS011;38480;52.724;6.436;2023-02-22T07:59:53;134.63;;;51.80;;
52586;SDS011;38480;52.724;6.436;2023-02-22T08:02:19;117.37;;;46.23;;
52586;SDS011;38480;52.724;6.436;2023-02-22T08:04:45;117.97;;;49.10;;
52586;SDS011;38480;52.724;6.436;2023-02-22T08:07:11;115.27;;;48.40;;
52586;SDS011;38480;52.724;6.436;2023-02-22T08:09:37;110.87;;;50.30;;
52586;SDS011;38480;52.724;6.436;2023-02-22T08:12:03;121.17;;;50.40;;
52586;SDS011;38480;52.724;6.436;2023-02-22T08:14:30;116.67;;;49.93;;
52586;SDS011;38480;52.724;6.436;2023-02-22T08:16:55;117.93;;;49.80;;
52586;SDS011;38480;52.724;6.436;2023-02-22T08:19:21;117.90;;;49.57;;
52586;SDS011;38480;52.724;6.436;2023-02-22T08:21:48;116.57;;;48.80;;
52586;SDS011;38480;52.724;6.436;2023-02-22T08:24:14;115.03;;;46.37;;
52586;SDS011;38480;52.724;6.436;2023-02-22T08:26:43;121.97;;;49.67;;
52586;SDS011;38480;52.724;6.436;2023-02-22T08:29:09;115.57;;;48.83;;
52586;SDS011;38480;52.724;6.436;2023-02-22T08:31:35;127.30;;;49.37;;
52586;SDS011;38480;52.724;6.436;2023-02-22T08:34:01;124.30;;;51.30;;
52586;SDS011;38480;52.724;6.436;2023-02-22T08:36:28;137.27;;;51.33;;
52586;SDS011;38480;52.724;6.436;2023-02-22T08:38:54;124.90;;;49.77;;
52586;SDS011;38480;52.724;6.436;2023-02-22T08:41:20;129.10;;;50.37;;
52586;SDS011;38480;52.724;6.436;2023-02-22T08:43:46;135.03;;;47.27;;
52586;SDS011;38480;52.724;6.436;2023-02-22T08:46:12;128.73;;;48.93;;
52586;SDS011;38480;52.724;6.436;2023-02-22T08:48:38;139.93;;;52.47;;
52586;SDS011;38480;52.724;6.436;2023-02-22T08:51:13;148.57;;;51.60;;
52586;SDS011;38480;52.724;6.436;2023-02-22T08:53:39;157.20;;;53.37;;
52586;SDS011;38480;52.724;6.436;2023-02-22T08:56:05;150.03;;;50.33;;
52586;SDS011;38480;52.724;6.436;2023-02-22T08:58:31;160.33;;;52.30;;
52586;SDS011;38480;52.724;6.436;2023-02-22T09:00:57;165.00;;;55.73;;
52586;SDS011;38480;52.724;6.436;2023-02-22T09:03:24;170.27;;;57.07;;
52586;SDS011;38480;52.724;6.436;2023-02-22T09:05:50;190.83;;;59.03;;
52586;SDS011;38480;52.724;6.436;2023-02-22T09:08:16;180.70;;;57.03;;
52586;SDS011;38480;52.724;6.436;2023-02-22T09:10:42;182.97;;;59.33;;
52586;SDS011;38480;52.724;6.436;2023-02-22T09:13:09;188.80;;;59.47;;
52586;SDS011;38480;52.724;6.436;2023-02-22T09:15:35;179.20;;;58.40;;
52586;SDS011;38480;52.724;6.436;2023-02-22T09:18:02;183.13;;;59.27;;
52586;SDS011;38480;52.724;6.436;2023-02-22T09:20:28;183.33;;;59.90;;
52586;SDS011;38480;52.724;6.436;2023-02-22T09:22:54;174.50;;;58.43;;
52586;SDS011;38480;52.724;6.436;2023-02-22T09:25:21;174.67;;;56.30;;
52586;SDS011;38480;52.724;6.436;2023-02-22T09:27:48;170.77;;;56.97;;
52586;SDS011;38480;52.724;6.436;2023-02-22T09:30:18;170.53;;;58.80;;
52586;SDS011;38480;52.724;6.436;2023-02-22T09:32:44;160.20;;;54.63;;
52586;SDS011;38480;52.724;6.436;2023-02-22T09:35:10;174.67;;;55.70;;
52586;SDS011;38480;52.724;6.436;2023-02-22T09:37:37;178.27;;;56.33;;
52586;SDS011;38480;52.724;6.436;2023-02-22T09:40:03;174.63;;;55.60;;
52586;SDS011;38480;52.724;6.436;2023-02-22T09:42:34;158.97;;;54.50;;
52586;SDS011;38480;52.724;6.436;2023-02-22T09:47:48;179.50;;;56.57;;
52586;SDS011;38480;52.724;6.436;2023-02-22T09:50:16;173.00;;;54.70;;
52586;SDS011;38480;52.724;6.436;2023-02-22T09:52:53;179.40;;;57.67;;
52586;SDS011;38480;52.724;6.436;2023-02-22T09:58:00;190.20;;;60.80;;
52586;SDS011;38480;52.724;6.436;2023-02-22T10:00:29;193.87;;;60.70;;
52586;SDS011;38480;52.724;6.436;2023-02-22T10:05:34;193.57;;;62.00;;
52586;SDS011;38480;52.724;6.436;2023-02-22T10:08:09;177.93;;;57.47;;
52586;SDS011;38480;52.724;6.436;2023-02-22T10:10:46;195.83;;;62.27;;
52586;SDS011;38480;52.724;6.436;2023-02-22T10:21:40;209.23;;;66.23;;
52586;SDS011;38480;52.724;6.436;2023-02-22T10:26:41;210.97;;;64.10;;
52586;SDS011;38480;52.724;6.436;2023-02-22T10:29:10;226.80;;;72.00;;
52586;SDS011;38480;52.724;6.436;2023-02-22T10:31:43;226.00;;;68.33;;
52586;SDS011;38480;52.724;6.436;2023-02-22T10:34:11;224.33;;;72.13;;
52586;SDS011;38480;52.724;6.436;2023-02-22T10:36:40;217.87;;;69.37;;
52586;SDS011;38480;52.724;6.436;2023-02-22T10:39:14;212.30;;;68.40;;
52586;SDS011;38480;52.724;6.436;2023-02-22T10:41:47;182.50;;;61.17;;
52586;SDS011;38480;52.724;6.436;2023-02-22T10:44:14;159.00;;;57.73;;
52586;SDS011;38480;52.724;6.436;2023-02-22T10:46:41;167.90;;;58.47;;
52586;SDS011;38480;52.724;6.436;2023-02-22T10:49:09;156.77;;;56.90;;
52586;SDS011;38480;52.724;6.436;2023-02-22T10:51:36;143.00;;;52.47;;
52586;SDS011;38480;52.724;6.436;2023-02-22T10:56:48;152.80;;;54.80;;
52586;SDS011;38480;52.724;6.436;2023-02-22T10:59:31;165.77;;;56.20;;
52586;SDS011;38480;52.724;6.436;2023-02-22T11:01:57;139.30;;;52.60;;
52586;SDS011;38480;52.724;6.436;2023-02-22T11:04:24;129.37;;;50.83;;
52586;SDS011;38480;52.724;6.436;2023-02-22T11:09:25;130.63;;;49.63;;
52586;SDS011;38480;52.724;6.436;2023-02-22T11:12:09;115.40;;;48.07;;
52586;SDS011;38480;52.724;6.436;2023-02-22T11:14:35;117.37;;;44.50;;
52586;SDS011;38480;52.724;6.436;2023-02-22T11:17:05;125.10;;;47.17;;
52586;SDS011;38480;52.724;6.436;2023-02-22T11:19:32;125.13;;;48.23;;
52586;SDS011;38480;52.724;6.436;2023-02-22T11:24:33;114.38;;;44.53;;
52586;SDS011;38480;52.724;6.436;2023-02-22T11:27:00;101.13;;;40.47;;
52586;SDS011;38480;52.724;6.436;2023-02-22T11:29:28;107.57;;;42.00;;
52586;SDS011;38480;52.724;6.436;2023-02-22T11:31:57;94.40;;;39.50;;
52586;SDS011;38480;52.724;6.436;2023-02-22T11:34:27;92.90;;;41.00;;
52586;SDS011;38480;52.724;6.436;2023-02-22T11:36:54;92.07;;;38.17;;
52586;SDS011;38480;52.724;6.436;2023-02-22T11:39:25;91.30;;;39.00;;
52586;SDS011;38480;52.724;6.436;2023-02-22T11:41:51;87.30;;;37.37;;
52586;SDS011;38480;52.724;6.436;2023-02-22T11:44:28;93.10;;;38.20;;
52586;SDS011;38480;52.724;6.436;2023-02-22T11:46:59;87.67;;;36.53;;
52586;SDS011;38480;52.724;6.436;2023-02-22T11:49:31;83.10;;;33.90;;
52586;SDS011;38480;52.724;6.436;2023-02-22T11:54:35;87.90;;;36.40;;
52586;SDS011;38480;52.724;6.436;2023-02-22T11:59:50;81.20;;;35.53;;
52586;SDS011;38480;52.724;6.436;2023-02-22T12:10:18;72.03;;;32.43;;
52586;SDS011;38480;52.724;6.436;2023-02-22T12:15:38;75.80;;;33.00;;
52586;SDS011;38480;52.724;6.436;2023-02-22T12:18:19;71.77;;;32.50;;
52586;SDS011;38480;52.724;6.436;2023-02-22T12:20:56;68.20;;;32.00;;
52586;SDS011;38480;52.724;6.436;2023-02-22T12:23:24;76.47;;;33.73;;
52586;SDS011;38480;52.724;6.436;2023-02-22T12:26:08;75.10;;;32.37;;
52586;SDS011;38480;52.724;6.436;2023-02-22T12:28:37;71.90;;;34.07;;
52586;SDS011;38480;52.724;6.436;2023-02-22T12:31:23;65.10;;;31.80;;
52586;SDS011;38480;52.724;6.436;2023-02-22T12:34:11;67.07;;;30.73;;
52586;SDS011;38480;52.724;6.436;2023-02-22T12:36:40;64.97;;;30.33;;
52586;SDS011;38480;52.724;6.436;2023-02-22T12:39:32;61.67;;;29.67;;
52586;SDS011;38480;52.724;6.436;2023-02-22T12:42:00;56.23;;;28.67;;
52586;SDS011;38480;52.724;6.436;2023-02-22T12:44:32;58.60;;;28.37;;
52586;SDS011;38480;52.724;6.436;2023-02-22T12:46:59;52.37;;;28.17;;
52586;SDS011;38480;52.724;6.436;2023-02-22T13:02:50;51.90;;;26.70;;
52586;SDS011;38480;52.724;6.436;2023-02-22T13:05:19;46.33;;;25.88;;
52586;SDS011;38480;52.724;6.436;2023-02-22T13:08:01;50.77;;;26.60;;
52586;SDS011;38480;52.724;6.436;2023-02-22T13:10:35;46.53;;;26.83;;
52586;SDS011;38480;52.724;6.436;2023-02-22T13:15:44;46.27;;;25.70;;
52586;SDS011;38480;52.724;6.436;2023-02-22T13:18:21;48.87;;;27.63;;
52586;SDS011;38480;52.724;6.436;2023-02-22T13:26:07;47.37;;;26.80;;
52586;SDS011;38480;52.724;6.436;2023-02-22T13:28:43;41.07;;;25.57;;
52586;SDS011;38480;52.724;6.436;2023-02-22T13:31:22;46.80;;;25.50;;
52586;SDS011;38480;52.724;6.436;2023-02-22T13:34:01;50.63;;;27.33;;
52586;SDS011;38480;52.724;6.436;2023-02-22T13:36:35;49.93;;;26.97;;
52586;SDS011;38480;52.724;6.436;2023-02-22T13:51:59;48.57;;;26.30;;
52586;SDS011;38480;52.724;6.436;2023-02-22T13:56:53;43.30;;;24.70;;
52586;SDS011;38480;52.724;6.436;2023-02-22T13:59:32;40.60;;;23.70;;
52586;SDS011;38480;52.724;6.436;2023-02-22T14:01:58;48.33;;;25.17;;
52586;SDS011;38480;52.724;6.436;2023-02-22T14:12:09;43.87;;;24.10;;
52586;SDS011;38480;52.724;6.436;2023-02-22T14:14:35;41.93;;;24.30;;
52586;SDS011;38480;52.724;6.436;2023-02-22T14:17:22;41.83;;;24.33;;
52586;SDS011;38480;52.724;6.436;2023-02-22T14:19:59;40.17;;;22.97;;
52586;SDS011;38480;52.724;6.436;2023-02-22T14:22:26;40.30;;;23.23;;
52586;SDS011;38480;52.724;6.436;2023-02-22T14:24:52;41.17;;;23.07;;
52586;SDS011;38480;52.724;6.436;2023-02-22T14:27:18;40.67;;;22.93;;
52586;SDS011;38480;52.724;6.436;2023-02-22T14:29:49;41.63;;;23.90;;
52586;SDS011;38480;52.724;6.436;2023-02-22T14:32:17;40.83;;;22.75;;
52586;SDS011;38480;52.724;6.436;2023-02-22T14:34:53;37.37;;;22.23;;
52586;SDS011;38480;52.724;6.436;2023-02-22T14:37:29;38.20;;;21.77;;
52586;SDS011;38480;52.724;6.436;2023-02-22T14:42:47;40.70;;;24.13;;
52586;SDS011;38480;52.724;6.436;2023-02-22T14:50:32;43.57;;;22.67;;
52586;SDS011;38480;52.724;6.436;2023-02-22T14:53:24;43.37;;;24.00;;
52586;SDS011;38480;52.724;6.436;2023-02-22T14:55:55;47.77;;;25.53;;
52586;SDS011;38480;52.724;6.436;2023-02-22T14:58:22;40.95;;;23.02;;
52586;SDS011;38480;52.724;6.436;2023-02-22T15:00:51;41.07;;;23.90;;
52586;SDS011;38480;52.724;6.436;2023-02-22T15:05:44;46.63;;;24.03;;
52586;SDS011;38480;52.724;6.436;2023-02-22T15:08:11;45.20;;;25.30;;
52586;SDS011;38480;52.724;6.436;2023-02-22T15:10:42;45.00;;;24.70;;
52586;SDS011;38480;52.724;6.436;2023-02-22T15:15:41;41.33;;;24.17;;
52586;SDS011;38480;52.724;6.436;2023-02-22T15:20:57;38.57;;;23.80;;
52586;SDS011;38480;52.724;6.436;2023-02-22T15:23:24;40.77;;;23.27;;
52586;SDS011;38480;52.724;6.436;2023-02-22T15:25:54;41.47;;;23.10;;
52586;SDS011;38480;52.724;6.436;2023-02-22T15:28:20;43.17;;;24.53;;
52586;SDS011;38480;52.724;6.436;2023-02-22T15:30:47;43.93;;;24.50;;
52586;SDS011;38480;52.724;6.436;2023-02-22T15:33:18;43.30;;;23.80;;
52586;SDS011;38480;52.724;6.436;2023-02-22T15:35:52;41.83;;;24.10;;
52586;SDS011;38480;52.724;6.436;2023-02-22T15:38:19;40.97;;;23.50;;
52586;SDS011;38480;52.724;6.436;2023-02-22T15:40:46;39.80;;;23.40;;
52586;SDS011;38480;52.724;6.436;2023-02-22T15:43:24;46.13;;;24.53;;
52586;SDS011;38480;52.724;6.436;2023-02-22T15:45:52;46.40;;;25.73;;
52586;SDS011;38480;52.724;6.436;2023-02-22T15:48:19;44.50;;;25.10;;
52586;SDS011;38480;52.724;6.436;2023-02-22T15:53:24;42.47;;;25.10;;
52586;SDS011;38480;52.724;6.436;2023-02-22T15:55:55;45.50;;;24.80;;
52586;SDS011;38480;52.724;6.436;2023-02-22T15:58:24;43.93;;;24.87;;
52586;SDS011;38480;52.724;6.436;2023-02-22T16:01:02;45.53;;;26.87;;
52586;SDS011;38480;52.724;6.436;2023-02-22T16:03:48;46.97;;;25.87;;
52586;SDS011;38480;52.724;6.436;2023-02-22T16:08:50;48.80;;;28.20;;
52586;SDS011;38480;52.724;6.436;2023-02-22T16:11:30;52.33;;;28.40;;
52586;SDS011;38480;52.724;6.436;2023-02-22T16:14:40;53.73;;;30.20;;
52586;SDS011;38480;52.724;6.436;2023-02-22T16:16:46;54.83;;;31.10;;
52586;SDS011;38480;52.724;6.436;2023-02-22T16:21:58;61.17;;;31.77;;
52586;SDS011;38480;52.724;6.436;2023-02-22T16:24:27;55.47;;;31.67;;
52586;SDS011;38480;52.724;6.436;2023-02-22T16:27:04;61.53;;;30.60;;
52586;SDS011;38480;52.724;6.436;2023-02-22T16:29:30;56.70;;;29.97;;
52586;SDS011;38480;52.724;6.436;2023-02-22T16:31:56;55.33;;;30.10;;
52586;SDS011;38480;52.724;6.436;2023-02-22T16:34:22;60.20;;;32.63;;
52586;SDS011;38480;52.724;6.436;2023-02-22T16:36:48;63.17;;;31.07;;
52586;SDS011;38480;52.724;6.436;2023-02-22T16:39:26;65.20;;;31.30;;
52586;SDS011;38480;52.724;6.436;2023-02-22T16:41:56;66.00;;;31.43;;
52586;SDS011;38480;52.724;6.436;2023-02-22T16:44:23;74.80;;;34.60;;
52586;SDS011;38480;52.724;6.436;2023-02-22T16:46:50;85.17;;;41.90;;